Time,TemperatureF,DewpointF,PressureIn,WindDirection,WindDirectionDegrees,WindSpeedMPH,WindSpeedGustMPH,Humidity,HourlyPrecipIn,Conditions,Clouds,dailyrainin,SoftwareType,DateUTC
2013-08-11 00:00:00,69.0,64.0,-100.00,West,268,0.0,5.0,84,0.00,,,-99.99,,2013-08-11 04:00:00,
2013-08-11 00:32:00,69.0,64.0,-100.00,West,268,0.0,5.0,84,0.00,,,-99.99,,2013-08-11 04:32:00,
2013-08-11 00:43:00,69.0,64.0,-100.00,West,268,0.0,5.0,84,0.00,,,-99.99,,2013-08-11 04:43:00,
2013-08-11 00:53:00,69.0,64.0,-100.00,West,268,0.0,5.0,84,0.00,,,-99.99,,2013-08-11 04:53:00,
2013-08-11 01:00:00,66.0,63.0,-100.00,WSW,252,0.0,0.0,91,0.00,,,-99.99,,2013-08-11 05:00:00,
2013-08-11 01:38:00,66.0,63.0,-100.00,WSW,252,0.0,0.0,91,0.00,,,-99.99,,2013-08-11 05:38:00,
2013-08-11 01:50:00,66.0,63.0,-100.00,WSW,252,0.0,0.0,91,0.00,,,-99.99,,2013-08-11 05:50:00,
2013-08-11 01:58:00,66.0,63.0,-100.00,WSW,252,0.0,0.0,91,0.00,,,-99.99,,2013-08-11 05:58:00,
2013-08-11 02:00:00,65.0,63.0,-100.00,WSW,254,0.0,0.0,94,0.00,,,-99.99,,2013-08-11 06:00:00,
2013-08-11 02:38:00,65.0,63.0,-100.00,WSW,254,0.0,0.0,94,0.00,,,-99.99,,2013-08-11 06:38:00,
2013-08-11 02:49:00,65.0,63.0,-100.00,WSW,254,0.0,0.0,94,0.00,,,-99.99,,2013-08-11 06:49:00,
2013-08-11 02:57:00,65.0,63.0,-100.00,WSW,254,0.0,0.0,94,0.00,,,-99.99,,2013-08-11 06:57:00,
2013-08-11 03:00:00,65.0,62.0,-100.00,NNW,342,0.0,0.0,91,0.00,,,-99.99,,2013-08-11 07:00:00,
2013-08-11 03:38:00,65.0,62.0,-100.00,NNW,342,0.0,0.0,91,0.00,,,-99.99,,2013-08-11 07:38:00,
2013-08-11 03:47:00,65.0,62.0,-100.00,NNW,342,0.0,0.0,91,0.00,,,-99.99,,2013-08-11 07:47:00,
2013-08-11 03:56:00,65.0,62.0,-100.00,NNW,342,0.0,0.0,91,0.00,,,-99.99,,2013-08-11 07:56:00,
2013-08-11 04:00:00,65.0,59.0,-100.00,NW,321,0.0,0.0,81,0.00,,,-99.99,,2013-08-11 08:00:00,
2013-08-11 04:37:00,65.0,59.0,-100.00,NW,321,0.0,0.0,81,0.00,,,-99.99,,2013-08-11 08:37:00,
2013-08-11 04:49:00,65.0,59.0,-100.00,NW,321,0.0,0.0,81,0.00,,,-99.99,,2013-08-11 08:49:00,
2013-08-11 04:59:00,65.0,59.0,-100.00,NW,321,0.0,0.0,81,0.00,,,-99.99,,2013-08-11 08:59:00,
2013-08-11 05:00:00,65.0,57.0,-100.00,NW,326,0.0,2.0,75,0.00,,,-99.99,,2013-08-11 09:00:00,
2013-08-11 05:37:00,65.0,57.0,-100.00,NW,326,0.0,2.0,75,0.00,,,-99.99,,2013-08-11 09:37:00,
2013-08-11 05:44:00,65.0,57.0,-100.00,NW,326,0.0,2.0,75,0.00,,,-99.99,,2013-08-11 09:44:00,
2013-08-11 06:38:00,63.0,56.0,-100.00,NW,322,0.0,3.0,77,0.00,,,-99.99,,2013-08-11 10:38:00,
2013-08-11 06:47:00,63.0,56.0,-100.00,NW,322,0.0,3.0,77,0.00,,,-99.99,,2013-08-11 10:47:00,
2013-08-11 06:58:00,63.0,56.0,-100.00,NW,322,0.0,3.0,77,0.00,,,-99.99,,2013-08-11 10:58:00,
2013-08-11 07:00:00,65.0,58.0,-100.00,North,351,0.0,2.0,77,0.00,,,-99.99,,2013-08-11 11:00:00,
2013-08-11 07:40:00,65.0,58.0,-100.00,North,351,0.0,2.0,77,0.00,,,-99.99,,2013-08-11 11:40:00,
2013-08-11 08:00:00,70.0,60.0,-100.00,NNW,346,0.0,0.0,70,0.00,,,-99.99,,2013-08-11 12:00:00,
2013-08-11 08:38:00,70.0,60.0,-100.00,NNW,346,0.0,0.0,70,0.00,,,-99.99,,2013-08-11 12:38:00,
2013-08-11 08:47:00,70.0,60.0,-100.00,NNW,346,0.0,0.0,70,0.00,,,-99.99,,2013-08-11 12:47:00,
2013-08-11 08:56:00,70.0,60.0,-100.00,NNW,346,0.0,0.0,70,0.00,,,-99.99,,2013-08-11 12:56:00,
2013-08-11 09:00:00,73.0,58.0,-100.00,NE,38,1.0,8.0,60,0.00,,,-99.99,,2013-08-11 13:00:00,
2013-08-11 09:41:00,73.0,58.0,-100.00,NE,38,1.0,8.0,60,0.00,,,-99.99,,2013-08-11 13:41:00,
2013-08-11 09:48:00,73.0,58.0,-100.00,NE,38,1.0,8.0,60,0.00,,,-99.99,,2013-08-11 13:48:00,
2013-08-11 09:58:00,73.0,58.0,-100.00,NE,38,1.0,8.0,60,0.00,,,-99.99,,2013-08-11 13:58:00,
2013-08-11 10:00:00,73.0,59.0,-100.00,NNE,26,0.0,9.0,61,0.00,,,-99.99,,2013-08-11 14:00:00,
2013-08-11 10:37:00,73.0,59.0,-100.00,NNE,26,0.0,9.0,61,0.00,,,-99.99,,2013-08-11 14:37:00,
2013-08-11 10:49:00,73.0,59.0,-100.00,NNE,26,0.0,9.0,61,0.00,,,-99.99,,2013-08-11 14:49:00,
2013-08-11 10:57:00,73.0,59.0,-100.00,NNE,26,0.0,9.0,61,0.00,,,-99.99,,2013-08-11 14:57:00,
2013-08-11 11:00:00,74.0,59.0,-100.00,NE,38,0.0,9.0,58,0.00,,,-99.99,,2013-08-11 15:00:00,
2013-08-11 11:41:00,74.0,59.0,-100.00,NE,38,0.0,9.0,58,0.00,,,-99.99,,2013-08-11 15:41:00,
2013-08-11 11:49:00,74.0,59.0,-100.00,NE,38,0.0,9.0,58,0.00,,,-99.99,,2013-08-11 15:49:00,
2013-08-11 12:00:00,75.0,57.0,-100.00,East,97,3.0,11.0,54,0.00,,,-99.99,,2013-08-11 16:00:00,
2013-08-11 12:41:00,75.0,57.0,-100.00,East,97,3.0,11.0,54,0.00,,,-99.99,,2013-08-11 16:41:00,
2013-08-11 12:47:00,75.0,57.0,-100.00,East,97,3.0,11.0,54,0.00,,,-99.99,,2013-08-11 16:47:00,
2013-08-11 12:59:00,75.0,57.0,-100.00,East,97,3.0,11.0,54,0.00,,,-99.99,,2013-08-11 16:59:00,
2013-08-11 13:00:00,75.0,58.0,-100.00,East,79,6.0,11.0,56,0.00,,,-99.99,,2013-08-11 17:00:00,
2013-08-11 13:38:00,75.0,58.0,-100.00,East,79,6.0,11.0,56,0.00,,,-99.99,,2013-08-11 17:38:00,
2013-08-11 13:48:00,75.0,58.0,-100.00,East,79,6.0,11.0,56,0.00,,,-99.99,,2013-08-11 17:48:00,
2013-08-11 14:50:00,75.0,59.0,-100.00,East,90,3.0,11.0,56,0.00,,,-99.99,,2013-08-11 18:50:00,
2013-08-11 14:58:00,75.0,59.0,-100.00,East,90,3.0,11.0,56,0.00,,,-99.99,,2013-08-11 18:58:00,
2013-08-11 15:00:00,76.0,60.0,-100.00,SE,137,8.0,11.0,57,0.00,,,-99.99,,2013-08-11 19:00:00,
2013-08-11 15:35:00,76.0,60.0,-100.00,SE,137,8.0,11.0,57,0.00,,,-99.99,,2013-08-11 19:35:00,
2013-08-11 15:51:00,76.0,60.0,-100.00,SE,137,8.0,11.0,57,0.00,,,-99.99,,2013-08-11 19:51:00,
2013-08-11 16:00:00,77.0,59.0,-100.00,SE,142,6.0,10.0,55,0.00,,,-99.99,,2013-08-11 20:00:00,
2013-08-11 16:40:00,77.0,59.0,-100.00,SE,142,6.0,10.0,55,0.00,,,-99.99,,2013-08-11 20:40:00,
2013-08-11 16:50:00,77.0,59.0,-100.00,SE,142,6.0,10.0,55,0.00,,,-99.99,,2013-08-11 20:50:00,
2013-08-11 16:59:00,77.0,59.0,-100.00,SE,142,6.0,10.0,55,0.00,,,-99.99,,2013-08-11 20:59:00,
2013-08-11 17:00:00,77.0,59.0,-100.00,SE,144,5.0,11.0,54,0.00,,,-99.99,,2013-08-11 21:00:00,
2013-08-11 17:37:00,77.0,59.0,-100.00,SE,144,5.0,11.0,54,0.00,,,-99.99,,2013-08-11 21:37:00,
2013-08-11 17:50:00,77.0,59.0,-100.00,SE,144,5.0,11.0,54,0.00,,,-99.99,,2013-08-11 21:50:00,
2013-08-11 17:59:00,77.0,59.0,-100.00,SE,144,5.0,11.0,54,0.00,,,-99.99,,2013-08-11 21:59:00,
2013-08-11 18:00:00,75.0,58.0,-100.00,South,174,8.0,11.0,55,0.00,,,-99.99,,2013-08-11 22:00:00,
2013-08-11 18:36:00,75.0,58.0,-100.00,South,174,8.0,11.0,55,0.00,,,-99.99,,2013-08-11 22:36:00,
2013-08-11 18:48:00,75.0,58.0,-100.00,South,174,8.0,11.0,55,0.00,,,-99.99,,2013-08-11 22:48:00,
2013-08-11 18:59:00,75.0,58.0,-100.00,South,174,8.0,11.0,55,0.00,,,-99.99,,2013-08-11 22:59:00,
2013-08-11 19:00:00,72.0,60.0,-100.00,SSE,150,0.0,13.0,66,0.00,,,-99.99,,2013-08-11 23:00:00,
2013-08-11 19:37:00,72.0,60.0,-100.00,SSE,150,0.0,13.0,66,0.00,,,-99.99,,2013-08-11 23:37:00,
2013-08-11 19:50:00,72.0,60.0,-100.00,SSE,150,0.0,13.0,66,0.00,,,-99.99,,2013-08-11 23:50:00,
2013-08-11 19:58:00,72.0,60.0,-100.00,SSE,150,0.0,13.0,66,0.00,,,-99.99,,2013-08-11 23:58:00,
2013-08-11 20:00:00,71.0,62.0,-100.00,SW,218,3.0,9.0,73,0.00,,,-99.99,,2013-08-12 00:00:00,
2013-08-11 20:38:00,71.0,62.0,-100.00,SW,218,3.0,9.0,73,0.00,,,-99.99,,2013-08-12 00:38:00,
2013-08-11 20:52:00,71.0,62.0,-100.00,SW,218,3.0,9.0,73,0.00,,,-99.99,,2013-08-12 00:52:00,
2013-08-11 20:59:00,71.0,62.0,-100.00,SW,218,3.0,9.0,73,0.00,,,-99.99,,2013-08-12 00:59:00,
2013-08-11 21:00:00,71.0,64.0,-100.00,SSE,156,0.0,9.0,80,0.00,,,-99.99,,2013-08-12 01:00:00,
2013-08-11 21:40:00,71.0,64.0,-100.00,SSE,156,0.0,9.0,80,0.00,,,-99.99,,2013-08-12 01:40:00,
2013-08-11 21:48:00,71.0,64.0,-100.00,SSE,156,0.0,9.0,80,0.00,,,-99.99,,2013-08-12 01:48:00,
2013-08-11 21:57:00,71.0,64.0,-100.00,SSE,156,0.0,9.0,80,0.00,,,-99.99,,2013-08-12 01:57:00,
2013-08-11 22:00:00,70.0,66.0,-100.00,SE,144,0.0,7.0,86,0.00,,,-99.99,,2013-08-12 02:00:00,
2013-08-11 22:37:00,70.0,66.0,-100.00,SE,144,0.0,7.0,86,0.00,,,-99.99,,2013-08-12 02:37:00,
2013-08-11 22:50:00,70.0,66.0,-100.00,SE,144,0.0,7.0,86,0.00,,,-99.99,,2013-08-12 02:50:00,
2013-08-11 23:00:00,70.0,67.0,-100.00,South,190,3.0,6.0,89,0.00,,,-99.99,,2013-08-12 03:00:00,
2013-08-11 23:39:00,70.0,67.0,-100.00,South,190,3.0,6.0,89,0.00,,,-99.99,,2013-08-12 03:39:00,
2013-08-11 23:48:00,70.0,67.0,-100.00,South,190,3.0,6.0,89,0.00,,,-99.99,,2013-08-12 03:48:00,